createdAt,value
2019-04-16T00:02:01.147Z,31.31
2019-04-16T00:04:57.079Z,31.40
2019-04-16T00:11:26.439Z,31.41
2019-04-16T00:21:01.966Z,31.46
2019-04-16T00:40:27.635Z,31.86
2019-04-16T00:43:33.728Z,31.93
2019-04-16T01:17:33.384Z,32.21
2019-04-16T01:20:44.150Z,31.99
2019-04-16T01:23:56.440Z,31.99
2019-04-16T01:30:21.457Z,32.03
2019-04-16T01:36:28.589Z,32.32
2019-04-16T01:42:49.270Z,31.91
2019-04-16T01:51:53.431Z,32.00
2019-04-16T01:55:05.902Z,32.10
2019-04-16T01:57:55.250Z,32.22
2019-04-16T02:01:08.098Z,32.11
2019-04-16T02:04:19.531Z,31.99
2019-04-16T02:07:01.231Z,32.08
2019-04-16T02:16:31.636Z,32.18
2019-04-16T02:19:45.150Z,32.18
2019-04-16T02:22:38.596Z,32.24
2019-04-16T02:25:52.375Z,32.38
2019-04-16T02:28:44.671Z,32.40
2019-04-16T02:47:27.327Z,32.45
2019-04-16T02:56:36.658Z,32.39
2019-04-16T03:02:42.531Z,32.38
2019-04-16T03:06:23.694Z,32.45
2019-04-16T03:08:40.445Z,32.39
2019-04-16T03:20:39.054Z,32.54
2019-04-16T03:29:47.624Z,32.13
2019-04-16T03:32:22.502Z,32.15
2019-04-16T03:35:36.364Z,31.98
2019-04-16T03:38:44.474Z,32.00
2019-04-16T03:44:40.639Z,31.97
2019-04-16T03:59:49.485Z,32.44
2019-04-16T04:02:56.546Z,32.38
2019-04-16T04:06:03.505Z,32.27
2019-04-16T04:12:19.950Z,32.02
2019-04-16T04:15:12.594Z,32.09
2019-04-16T04:18:21.180Z,32.10
2019-04-16T04:21:35.149Z,32.22
2019-04-16T04:24:36.705Z,32.11
2019-04-16T04:27:47.736Z,32.16
2019-04-16T04:37:30.937Z,32.32
2019-04-16T04:40:24.853Z,32.31
2019-04-16T04:59:05.250Z,31.06
2019-04-16T05:02:10.906Z,30.55
2019-04-16T05:05:59.498Z,30.21
2019-04-16T05:08:28.643Z,29.70
2019-04-16T05:11:25.742Z,29.35
2019-04-16T05:20:35.623Z,28.38
2019-04-16T05:23:31.177Z,28.12
2019-04-16T05:26:41.828Z,27.64
2019-04-16T05:38:39.057Z,26.22
2019-04-16T05:42:10.025Z,26.25
2019-04-16T05:48:15.016Z,25.51
2019-04-16T05:54:52.756Z,24.93
2019-04-16T06:00:58.804Z,24.52
2019-04-16T06:07:11.875Z,24.04
2019-04-16T06:13:06.136Z,23.69
2019-04-16T06:22:34.164Z,23.45
2019-04-16T06:28:46.414Z,22.78
2019-04-16T06:35:02.382Z,22.23
2019-04-16T06:38:14.501Z,21.89
2019-04-16T06:44:33.355Z,21.93
2019-04-16T06:47:48.668Z,21.78
2019-04-16T06:51:02.725Z,21.42
2019-04-16T06:54:11.153Z,20.69
2019-04-16T06:57:37.227Z,19.74
2019-04-16T07:03:48.785Z,20.55
2019-04-16T07:07:17.601Z,19.62
2019-04-16T07:10:10.735Z,19.84
2019-04-16T07:12:56.299Z,20.27
2019-04-16T07:15:35.203Z,20.51
2019-04-16T07:18:23.238Z,20.33
2019-04-16T07:21:23.197Z,20.35
2019-04-16T07:24:31.828Z,20.01
2019-04-16T07:27:38.685Z,20.10
2019-04-16T07:33:32.809Z,19.95
2019-04-16T07:34:34.842Z,19.97
2019-04-16T07:36:24.272Z,19.78
2019-04-16T07:39:28.640Z,19.95
2019-04-16T07:42:27.338Z,19.96
2019-04-16T07:45:31.814Z,19.62
2019-04-16T07:48:22.697Z,19.49
2019-04-16T07:51:12.880Z,19.04
2019-04-16T07:54:33.051Z,19.43
2019-04-16T07:57:12.496Z,19.23
2019-04-16T08:00:22.339Z,19.56
2019-04-16T08:03:09.693Z,19.94
2019-04-16T08:05:49.155Z,19.94
2019-04-16T08:11:44.950Z,20.51
2019-04-16T08:14:33.858Z,20.32
2019-04-16T08:17:49.471Z,20.45
2019-04-16T08:20:34.892Z,20.04
2019-04-16T08:23:38.989Z,19.83
2019-04-16T08:26:16.964Z,20.50
2019-04-16T08:29:04.389Z,20.23
2019-04-16T08:31:47.561Z,19.81
2019-04-16T08:34:33.225Z,19.81
2019-04-16T08:37:23.650Z,19.93
2019-04-16T08:40:14.809Z,20.72
2019-04-16T08:43:07.521Z,20.55
2019-04-16T08:45:54.352Z,20.55
2019-04-16T08:48:33.318Z,20.59
2019-04-16T08:51:44.379Z,20.68
2019-04-16T08:54:37.565Z,20.75
2019-04-16T08:57:32.166Z,20.75
2019-04-16T09:00:15.254Z,21.15
2019-04-16T09:03:15.226Z,20.73
2019-04-16T09:05:54.662Z,20.85
2019-04-16T09:08:39.958Z,20.79
2019-04-16T09:11:35.583Z,20.77
2019-04-16T09:14:46.337Z,20.67
2019-04-16T09:17:44.804Z,20.72
2019-04-16T09:20:34.761Z,20.62
2019-04-16T09:23:19.100Z,20.57
2019-04-16T09:26:38.835Z,19.98
2019-04-16T09:29:34.004Z,19.71
2019-04-16T09:32:45.571Z,20.17
2019-04-16T09:35:48.975Z,20.17
2019-04-16T09:39:01.015Z,20.17
2019-04-16T09:41:52.236Z,19.42
2019-04-16T09:44:49.301Z,19.42
2019-04-16T09:47:38.938Z,19.76
2019-04-16T09:50:29.137Z,19.93
2019-04-16T09:53:08.607Z,19.71
2019-04-16T09:56:05.147Z,19.59
2019-04-16T09:58:46.095Z,19.59
2019-04-16T10:01:37.103Z,19.91
2019-04-16T10:04:24.085Z,19.59
2019-04-16T10:07:05.691Z,19.84
2019-04-16T10:09:51.302Z,20.79
2019-04-16T10:12:36.956Z,20.79
2019-04-16T10:15:21.771Z,19.68
2019-04-16T10:18:03.276Z,19.63
2019-04-16T10:21:01.739Z,19.40
2019-04-16T10:24:07.614Z,19.19
2019-04-16T10:27:00.699Z,19.19
2019-04-16T10:29:48.819Z,19.52
2019-04-16T10:32:33.439Z,19.25
2019-04-16T10:35:16.152Z,18.51
2019-04-16T10:38:17.205Z,17.92
2019-04-16T10:41:08.163Z,17.92
2019-04-16T10:44:19.545Z,17.17
2019-04-16T10:47:21.253Z,16.49
2019-04-16T10:50:23.562Z,17.19
2019-04-16T10:53:41.724Z,16.73
2019-04-16T10:56:46.274Z,16.37
2019-04-16T10:59:49.012Z,16.37
2019-04-16T11:03:06.438Z,15.96
2019-04-16T11:06:05.404Z,15.58
2019-04-16T11:09:08.288Z,15.58
2019-04-16T11:11:54.045Z,15.74
2019-04-16T11:15:08.172Z,15.01
2019-04-16T11:17:57.543Z,15.35
2019-04-16T11:20:39.986Z,15.83
2019-04-16T11:23:25.606Z,15.58
2019-04-16T11:26:02.080Z,15.65
2019-04-16T11:28:44.028Z,15.49
2019-04-16T11:31:41.287Z,14.95
2019-04-16T11:34:47.812Z,15.39
2019-04-16T11:37:27.379Z,14.87
2019-04-16T11:40:12.726Z,15.02
2019-04-16T11:42:50.770Z,15.36
2019-04-16T11:45:41.905Z,15.88
2019-04-16T11:48:23.448Z,16.00
2019-04-16T11:51:05.519Z,16.10
2019-04-16T11:53:52.290Z,16.07
2019-04-16T11:56:32.216Z,15.68
2019-04-16T11:59:26.948Z,15.92
2019-04-16T12:02:23.836Z,16.46
2019-04-16T12:05:26.177Z,16.45
2019-04-16T12:08:29.360Z,16.64
2019-04-16T12:12:23.465Z,16.74
2019-04-16T12:15:28.693Z,16.68
2019-04-16T12:18:32.130Z,16.46
2019-04-16T12:21:55.828Z,16.63
2019-04-16T12:25:14.867Z,16.34
2019-04-16T12:28:23.298Z,16.31
2019-04-16T12:31:29.605Z,15.76
2019-04-16T12:34:57.542Z,15.61
2019-04-16T12:38:13.139Z,15.40
2019-04-16T12:45:27.095Z,15.17
2019-04-16T12:48:21.219Z,15.40
2019-04-16T12:51:15.557Z,16.15
2019-04-16T12:54:14.164Z,16.33
2019-04-16T12:57:27.706Z,16.45
2019-04-16T13:00:32.884Z,16.05
2019-04-16T13:03:41.118Z,15.54
2019-04-16T13:06:54.845Z,15.60
2019-04-16T13:09:53.921Z,15.83
2019-04-16T13:12:57.491Z,15.85
2019-04-16T13:16:03.879Z,15.51
2019-04-16T13:19:07.872Z,15.66
2019-04-16T13:22:08.671Z,16.02
2019-04-16T13:25:14.429Z,16.17
2019-04-16T13:28:16.238Z,16.03
2019-04-16T13:34:18.243Z,16.48
2019-04-16T13:36:51.847Z,17.18
2019-04-16T13:39:43.361Z,17.18
2019-04-16T13:42:32.778Z,17.18
2019-04-16T13:45:28.813Z,17.18
2019-04-16T13:48:16.593Z,16.20
2019-04-16T13:51:05.518Z,15.95
2019-04-16T13:54:17.822Z,16.54
2019-04-16T13:57:20.051Z,16.84
2019-04-16T14:00:33.573Z,16.98
2019-04-16T14:03:37.940Z,17.63
2019-04-16T14:06:15.234Z,18.13
2019-04-16T14:09:21.359Z,17.81
2019-04-16T14:12:05.899Z,18.14
2019-04-16T14:15:06.218Z,18.71
2019-04-16T14:17:53.050Z,19.73
2019-04-16T14:20:39.097Z,19.73
2019-04-16T14:23:44.197Z,19.74
2019-04-16T14:26:26.471Z,19.32
2019-04-16T14:29:13.760Z,19.45
2019-04-16T14:32:01.693Z,20.60
2019-04-16T14:34:53.294Z,20.91
2019-04-16T14:37:51.827Z,20.77
2019-04-16T14:40:42.332Z,21.21
2019-04-16T14:43:37.139Z,21.49
2019-04-16T14:46:28.217Z,21.09
2019-04-16T14:49:21.094Z,21.21
2019-04-16T14:52:03.565Z,20.97
2019-04-16T14:55:01.190Z,20.36
2019-04-16T14:57:39.857Z,19.97
2019-04-16T15:01:15.746Z,20.14
2019-04-16T15:04:13.827Z,20.28
2019-04-16T15:07:03.478Z,20.00
2019-04-16T15:10:12.640Z,19.59
2019-04-16T15:13:11.320Z,19.32
2019-04-16T15:16:24.249Z,18.58
2019-04-16T15:19:35.683Z,18.41
2019-04-16T15:22:43.658Z,18.13
2019-04-16T15:25:51.216Z,18.47
2019-04-16T15:32:38.992Z,18.25
2019-04-16T15:35:40.099Z,18.53
2019-04-16T15:38:40.397Z,18.65
2019-04-16T15:41:33.189Z,19.12
2019-04-16T15:44:35.045Z,19.67
2019-04-16T15:47:46.087Z,19.69
2019-04-16T15:51:00.817Z,20.25
2019-04-16T15:54:08.563Z,20.13
2019-04-16T15:57:09.092Z,20.87
2019-04-16T16:00:17.017Z,21.36
2019-04-16T16:03:38.453Z,21.16
2019-04-16T16:06:26.272Z,21.39
2019-04-16T16:09:41.789Z,21.53
2019-04-16T16:12:31.197Z,21.55
2019-04-16T16:15:23.839Z,21.52
2019-04-16T16:18:10.077Z,21.67
2019-04-16T16:20:58.168Z,21.67
2019-04-16T16:23:56.935Z,21.81
2019-04-16T16:26:50.527Z,22.09
2019-04-16T16:29:41.066Z,22.67
2019-04-16T16:32:47.806Z,22.98
2019-04-16T16:35:34.858Z,23.06
2019-04-16T16:38:33.381Z,23.06
2019-04-16T16:42:02.236Z,23.18
2019-04-16T16:44:42.942Z,23.33
2019-04-16T16:47:49.183Z,23.43
2019-04-16T16:50:51.698Z,23.43
2019-04-16T16:53:54.474Z,24.21
2019-04-16T16:56:48.607Z,24.35
2019-04-16T16:59:56.457Z,24.35
2019-04-16T17:02:52.815Z,24.82
2019-04-16T17:05:52.006Z,24.82
2019-04-16T17:08:44.510Z,24.75
2019-04-16T17:11:20.476Z,24.18
2019-04-16T17:14:03.846Z,24.25
2019-04-16T17:16:50.418Z,24.36
2019-04-16T17:19:33.793Z,24.45
2019-04-16T17:22:30.385Z,24.43
2019-04-16T17:25:01.491Z,24.91
2019-04-16T17:27:51.242Z,25.12
2019-04-16T17:30:48.875Z,25.92
2019-04-16T17:33:35.269Z,25.92
2019-04-16T17:36:20.274Z,25.57
2019-04-16T17:39:43.923Z,25.86
2019-04-16T17:42:54.316Z,26.24
2019-04-16T17:45:58.200Z,26.52
2019-04-16T17:49:07.306Z,26.47
2019-04-16T17:52:09.759Z,26.73
2019-04-16T17:55:24.593Z,26.80
2019-04-16T17:58:03.529Z,26.86
2019-04-16T18:01:10.123Z,26.75
2019-04-16T18:04:22.593Z,27.05
2019-04-16T18:07:36.330Z,26.99
2019-04-16T18:10:33.937Z,26.74
2019-04-16T18:13:43.366Z,26.74
2019-04-16T18:16:55.434Z,27.32
2019-04-16T18:20:09.129Z,27.51
2019-04-16T18:23:18.907Z,27.51
2019-04-16T18:26:42.230Z,27.79
2019-04-16T18:29:33.092Z,28.07
2019-04-16T18:32:53.821Z,28.91
2019-04-16T18:36:02.535Z,29.50
2019-04-16T18:39:04.339Z,30.25
2019-04-16T18:41:53.376Z,30.81
2019-04-16T18:44:51.226Z,31.38
2019-04-16T18:48:02.902Z,31.63
2019-04-16T18:51:01.981Z,31.76
2019-04-16T18:53:53.330Z,31.76
2019-04-16T18:56:32.220Z,31.48
2019-04-16T18:59:10.749Z,31.60
2019-04-16T19:02:17.401Z,31.92
2019-04-16T19:05:14.114Z,32.08
2019-04-16T19:08:40.758Z,32.15
2019-04-16T19:11:36.962Z,32.40
2019-04-16T19:17:52.945Z,32.37
2019-04-16T19:21:07.816Z,32.59
2019-04-16T19:23:54.275Z,33.33
2019-04-16T19:26:58.439Z,33.33
2019-04-16T19:29:49.048Z,33.23
2019-04-16T19:32:43.609Z,32.94
2019-04-16T19:35:35.440Z,33.21
2019-04-16T19:38:28.596Z,33.38
2019-04-16T19:41:20.637Z,33.31
2019-04-16T19:44:07.226Z,33.30
2019-04-16T19:47:12.717Z,33.30
2019-04-16T19:50:03.628Z,33.33
2019-04-16T19:52:57.188Z,33.23
2019-04-16T19:55:47.700Z,33.23
2019-04-16T19:58:47.011Z,33.64
2019-04-16T20:01:39.088Z,33.64
2019-04-16T20:04:58.191Z,33.84
2019-04-16T20:07:50.255Z,33.70
2019-04-16T20:10:36.424Z,33.90
2019-04-16T20:13:24.192Z,34.01
2019-04-16T20:16:17.735Z,33.77
2019-04-16T20:19:29.931Z,33.63
2019-04-16T20:22:17.920Z,33.39
2019-04-16T20:24:58.004Z,33.55
2019-04-16T20:27:43.114Z,33.99
2019-04-16T20:30:32.344Z,33.88
2019-04-16T20:33:14.502Z,33.97
2019-04-16T20:36:06.041Z,33.82
2019-04-16T20:38:44.512Z,33.82
2019-04-16T20:41:40.255Z,34.19
2019-04-16T20:44:16.576Z,34.26
2019-04-16T20:47:10.472Z,35.58
2019-04-16T20:50:03.958Z,35.58
2019-04-16T20:53:00.562Z,35.89
2019-04-16T20:58:56.388Z,36.03
2019-04-16T21:01:42.789Z,36.56
2019-04-16T21:04:40.502Z,36.78
2019-04-16T21:07:26.113Z,36.94
2019-04-16T21:10:18.890Z,37.45
2019-04-16T21:13:24.931Z,37.59
2019-04-16T21:16:27.420Z,37.65
2019-04-16T21:19:23.307Z,38.13
2019-04-16T21:22:24.795Z,38.51
2019-04-16T21:25:09.998Z,38.66
2019-04-16T21:28:25.847Z,39.07
2019-04-16T21:31:34.455Z,39.43
2019-04-16T21:35:16.058Z,39.43
2019-04-16T21:38:17.053Z,39.62
2019-04-16T21:41:14.460Z,39.73
2019-04-16T21:43:49.146Z,39.90
2019-04-16T21:46:41.842Z,39.86
2019-04-16T21:49:37.373Z,39.66
2019-04-16T21:52:31.404Z,39.62
2019-04-16T21:55:32.796Z,39.78
2019-04-16T21:58:14.605Z,40.18
2019-04-16T22:04:42.677Z,40.13
2019-04-16T22:07:34.304Z,40.06
2019-04-16T22:10:29.346Z,39.96
2019-04-16T22:13:11.997Z,39.15
2019-04-16T22:16:09.738Z,39.27
2019-04-16T22:18:52.946Z,39.27
2019-04-16T22:21:33.187Z,38.76
2019-04-16T22:24:25.563Z,38.82
2019-04-16T22:27:06.354Z,39.21
2019-04-16T22:29:41.160Z,39.31
2019-04-16T22:32:27.167Z,39.27
2019-04-16T22:35:11.246Z,39.09
2019-04-16T22:38:03.318Z,39.09
2019-04-16T22:41:04.517Z,39.46
2019-04-16T22:44:16.873Z,39.82
2019-04-16T22:47:12.409Z,39.33
2019-04-16T22:50:12.838Z,39.28
2019-04-16T22:56:00.077Z,39.53
2019-04-16T22:58:54.047Z,39.70
2019-04-16T23:01:37.799Z,39.85
2019-04-16T23:04:28.827Z,39.29
2019-04-16T23:07:22.712Z,39.56
2019-04-16T23:10:06.941Z,39.59
2019-04-16T23:12:51.456Z,39.59
2019-04-16T23:15:38.155Z,39.16
2019-04-16T23:18:18.307Z,38.95
2019-04-16T23:21:10.012Z,38.73
2019-04-16T23:24:14.237Z,38.73
2019-04-16T23:27:15.611Z,38.25
2019-04-16T23:29:49.070Z,38.25
2019-04-16T23:32:28.864Z,38.65
2019-04-16T23:35:13.722Z,39.21
2019-04-16T23:37:58.172Z,39.21
2019-04-16T23:40:45.179Z,39.48
2019-04-16T23:43:54.327Z,39.88
2019-04-16T23:46:53.282Z,40.53
2019-04-16T23:49:53.710Z,40.00
2019-04-16T23:52:45.734Z,40.52
2019-04-16T23:55:48.910Z,40.88
2019-04-16T23:59:15.994Z,40.66
